Time;durP1;ratioP1;P1;durP2;ratioP2;P2;SDS_P1;SDS_P2;PMS_P1;PMS_P2;Temp;Humidity;BMP_temperature;BMP_pressure;BME280_temperature;BME280_humidity;BME280_pressure;Samples;Min_cycle;Max_cycle;Signal;HPM_P1;HPM_P2
2022/05/09 00:01:57;;;;;;;3.85;1.67;;;7.40;99.90;7.70;98826.00;;;;4876742;28;88456;-64
2022/05/09 00:04:24;;;;;;;1.98;1.60;;;7.40;99.90;7.70;98832.00;;;;4882727;28;88128;-63
2022/05/09 00:06:50;;;;;;;3.08;1.88;;;7.30;99.90;7.70;98832.00;;;;4884058;28;86439;-62
2022/05/09 00:09:18;;;;;;;2.40;1.90;;;7.40;99.90;7.70;98836.00;;;;4866794;28;87635;-62
2022/05/09 00:11:45;;;;;;;2.50;1.70;;;7.40;99.90;7.70;98845.00;;;;4882416;28;87520;-63
2022/05/09 00:14:12;;;;;;;3.65;1.73;;;7.40;99.90;7.80;98844.00;;;;4883119;28;88369;-62
2022/05/09 00:16:39;;;;;;;3.70;2.22;;;7.50;99.90;7.80;98847.00;;;;4886471;28;87032;-62
2022/05/09 00:19:09;;;;;;;2.90;2.00;;;7.50;99.90;7.70;98824.00;;;;4886546;28;87267;-62
2022/05/09 00:21:40;;;;;;;3.65;2.00;;;7.40;99.90;7.70;98836.00;;;;4882490;28;87603;-63
2022/05/09 00:24:14;;;;;;;4.22;2.00;;;7.40;99.90;7.70;98843.00;;;;4886921;28;87014;-63
2022/05/09 00:26:48;;;;;;;3.03;1.90;;;7.40;99.90;7.70;98840.00;;;;4871659;28;87039;-63
2022/05/09 00:29:15;;;;;;;2.85;1.77;;;7.40;99.90;7.70;98832.00;;;;4872766;28;88669;-63
2022/05/09 00:31:43;;;;;;;3.38;2.00;;;7.30;99.90;7.70;98841.00;;;;4886940;28;87421;-63
2022/05/09 00:34:12;;;;;;;3.00;1.98;;;7.40;99.90;7.60;98836.00;;;;4886770;28;87106;-63
2022/05/09 00:36:39;;;;;;;4.07;2.50;;;7.30;99.90;7.70;98841.00;;;;4886848;28;87423;-63
2022/05/09 00:39:06;;;;;;;3.25;2.30;;;7.30;99.90;7.70;98847.00;;;;4885847;28;88498;-63
2022/05/09 00:41:37;;;;;;;3.08;2.28;;;7.30;99.90;7.70;98832.00;;;;4869316;28;91239;-64
2022/05/09 00:44:21;;;;;;;3.97;2.53;;;7.30;99.90;7.70;98833.00;;;;4886568;28;87075;-64
2022/05/09 00:46:51;;;;;;;2.70;2.13;;;7.30;99.90;7.60;98833.00;;;;4886656;28;86982;-63
2022/05/09 00:49:45;;;;;;;3.55;2.38;;;7.30;99.90;7.70;98851.00;;;;4886223;28;89656;-63
2022/05/09 00:52:27;;;;;;;2.95;2.15;;;7.30;99.90;7.70;98847.00;;;;4879343;28;88634;-63
2022/05/09 00:55:08;;;;;;;3.42;2.40;;;7.30;99.90;7.60;98838.00;;;;4870187;28;87076;-63
2022/05/09 00:57:42;;;;;;;4.10;2.67;;;7.30;99.90;7.60;98843.00;;;;4884988;28;86554;-64
2022/05/09 01:00:14;;;;;;;3.88;2.40;;;7.30;99.90;7.70;98840.00;;;;4886321;28;87690;-64
2022/05/09 01:02:44;;;;;;;;;;;7.30;99.90;7.70;98837.00;;;;4886333;28;88328;-63
2022/05/09 01:05:12;;;;;;;4.82;2.63;;;7.30;99.90;7.60;98847.00;;;;4869700;28;88058;-63
2022/05/09 01:07:39;;;;;;;3.38;2.67;;;7.20;99.90;7.60;98837.00;;;;4869328;28;86966;-63
2022/05/09 01:10:12;;;;;;;4.57;2.67;;;7.20;99.90;7.60;98839.00;;;;4886797;28;89672;-63
2022/05/09 01:12:40;;;;;;;3.78;2.45;;;7.20;99.90;7.50;98839.00;;;;4885889;28;88442;-63
2022/05/09 01:15:12;;;;;;;3.33;2.65;;;7.20;99.90;7.50;98846.00;;;;4870399;28;87011;-64
2022/05/09 01:17:40;;;;;;;2.75;2.45;;;7.20;99.90;7.50;98827.00;;;;4886851;28;87564;-65
2022/05/09 01:20:09;;;;;;;3.50;2.45;;;7.20;99.90;7.60;98838.00;;;;4869744;28;88691;-64
2022/05/09 01:22:38;;;;;;;4.45;2.70;;;7.20;99.90;7.60;98829.00;;;;4885930;28;87261;-64
2022/05/09 01:25:10;;;;;;;4.50;2.83;;;7.20;99.90;7.50;98824.00;;;;4853360;28;87163;-64
2022/05/09 01:27:41;;;;;;;3.00;2.70;;;7.20;99.90;7.50;98830.00;;;;4885346;28;86980;-64
2022/05/09 01:30:11;;;;;;;4.40;3.20;;;7.20;99.90;7.50;98818.00;;;;4885534;28;88737;-64
2022/05/09 01:33:00;;;;;;;3.67;2.70;;;7.20;99.90;7.50;98825.00;;;;4868700;28;87251;-64
2022/05/09 01:35:55;;;;;;;3.10;2.70;;;7.20;99.90;7.50;98830.00;;;;4885577;28;88252;-65
2022/05/09 01:38:26;;;;;;;3.15;2.80;;;7.20;99.90;7.40;98836.00;;;;4859349;28;87086;-64
2022/05/09 01:40:53;;;;;;;5.38;3.38;;;7.20;99.90;7.50;98835.00;;;;4884203;28;87699;-64
2022/05/09 01:43:33;;;;;;;3.10;2.47;;;7.10;99.90;7.50;98832.00;;;;4884121;28;87680;-64
2022/05/09 01:46:02;;;;;;;4.45;2.88;;;7.10;99.90;7.40;98836.00;;;;4883511;28;87274;-64
2022/05/09 01:51:13;;;;;;;4.10;2.80;;;7.10;99.90;7.40;98836.00;;;;4883787;28;87704;-64
2022/05/09 01:53:39;;;;;;;5.15;2.92;;;7.20;99.90;7.50;98850.00;;;;4868187;28;88554;-64
2022/05/09 01:56:06;;;;;;;3.85;2.80;;;7.20;99.90;7.50;98849.00;;;;4868012;28;88828;-64
2022/05/09 01:58:32;;;;;;;3.97;2.85;;;7.20;99.90;7.40;98849.00;;;;4885596;28;87015;-64
2022/05/09 02:00:58;;;;;;;4.72;2.80;;;7.10;99.90;7.40;98866.00;;;;4867834;28;88757;-65
2022/05/09 02:03:24;;;;;;;5.45;3.10;;;7.10;99.90;7.30;98853.00;;;;4884803;28;88318;-64
2022/05/09 02:05:52;;;;;;;3.85;2.88;;;7.10;99.90;7.30;98853.00;;;;4884861;28;87577;-64
2022/05/09 02:08:18;;;;;;;4.10;2.67;;;7.00;99.90;7.30;98860.00;;;;4885109;28;87596;-63
2022/05/09 02:10:44;;;;;;;4.68;2.90;;;7.10;99.90;7.30;98853.00;;;;4885467;28;87729;-63
2022/05/09 02:13:10;;;;;;;3.35;2.60;;;7.00;99.90;7.20;98860.00;;;;4884914;28;87379;-64
2022/05/09 02:15:36;;;;;;;4.05;2.83;;;7.00;99.90;7.30;98847.00;;;;4868241;28;87095;-64
2022/05/09 02:18:02;;;;;;;2.80;2.38;;;7.00;99.90;7.20;98851.00;;;;4883208;28;86831;-64
2022/05/09 02:20:28;;;;;;;5.90;3.30;;;7.00;99.90;7.30;98852.00;;;;4867944;28;89766;-64
2022/05/09 02:22:55;;;;;;;2.63;2.30;;;7.00;99.90;7.30;98848.00;;;;4884721;28;88354;-64
2022/05/09 02:25:29;;;;;;;4.88;2.60;;;6.90;99.90;7.40;98831.00;;;;4885498;28;87063;-64
2022/05/09 02:28:07;;;;;;;2.83;2.30;;;7.00;99.90;7.30;98855.00;;;;4884596;28;87466;-64
2022/05/09 02:30:34;;;;;;;4.55;2.55;;;7.00;99.90;7.30;98844.00;;;;4865254;28;87450;-63
2022/05/09 02:33:00;;;;;;;5.20;2.22;;;7.00;99.90;7.30;98831.00;;;;4868082;28;87409;-63
2022/05/09 02:35:26;;;;;;;3.85;2.05;;;7.00;99.90;7.30;98830.00;;;;4884188;28;87101;-64
2022/05/09 02:37:52;;;;;;;4.72;2.10;;;7.00;99.90;7.30;98853.00;;;;4884756;28;86656;-64
2022/05/09 02:40:19;;;;;;;4.10;1.80;;;7.00;99.90;7.40;98837.00;;;;4884383;28;87027;-63
2022/05/09 02:42:45;;;;;;;4.03;1.67;;;7.00;99.90;7.40;98838.00;;;;4866851;28;87399;-63
2022/05/09 02:45:12;;;;;;;2.42;1.60;;;7.10;99.90;7.40;98844.00;;;;4884440;28;88503;-63
2022/05/09 02:47:40;;;;;;;5.63;1.88;;;7.10;99.90;7.40;98837.00;;;;4884572;28;87534;-64
2022/05/09 02:50:08;;;;;;;4.65;2.38;;;7.10;99.90;7.50;98832.00;;;;4884353;28;87688;-60
2022/05/09 02:52:36;;;;;;;4.90;2.00;;;7.10;99.90;7.50;98831.00;;;;4867456;28;87944;-61
2022/05/09 02:55:08;;;;;;;5.70;1.67;;;7.10;99.90;7.50;98843.00;;;;4885033;28;87136;-61
2022/05/09 02:57:36;;;;;;;3.03;1.90;;;7.10;99.90;7.50;98842.00;;;;4867958;28;87596;-61
2022/05/09 03:00:14;;;;;;;1.98;1.60;;;7.10;99.90;7.50;98829.00;;;;4884375;28;87567;-61
2022/05/09 03:02:40;;;;;;;2.72;1.83;;;7.10;99.90;7.50;98826.00;;;;4883713;28;88468;-61
2022/05/09 03:05:07;;;;;;;2.63;1.92;;;7.20;99.90;7.50;98833.00;;;;4884329;28;87260;-61
2022/05/09 03:07:34;;;;;;;2.55;1.85;;;7.20;99.90;7.40;98837.00;;;;4865208;28;87147;-61
2022/05/09 03:10:07;;;;;;;3.80;1.83;;;7.20;99.90;7.40;98838.00;;;;4881678;28;88476;-61
2022/05/09 03:12:33;;;;;;;4.55;2.00;;;7.10;99.90;7.50;98834.00;;;;4884130;28;88362;-61
2022/05/09 03:14:59;;;;;;;3.53;1.80;;;7.20;99.90;7.50;98844.00;;;;4884603;28;87022;-61
2022/05/09 03:17:25;;;;;;;3.88;1.80;;;7.20;99.90;7.40;98856.00;;;;4867121;28;87922;-60
2022/05/09 03:19:51;;;;;;;4.05;2.13;;;7.20;99.90;7.30;98851.00;;;;4883753;28;87754;-60
2022/05/09 03:22:17;;;;;;;4.07;1.75;;;7.10;99.90;7.40;98840.00;;;;4884171;28;87045;-62
2022/05/09 03:24:43;;;;;;;3.83;1.90;;;7.10;99.90;7.50;98846.00;;;;4884161;28;87054;-61
2022/05/09 03:27:12;;;;;;;3.50;2.25;;;7.20;99.90;7.50;98845.00;;;;4884718;28;86493;-61
2022/05/09 03:29:38;;;;;;;4.07;2.60;;;7.20;99.90;7.40;98858.00;;;;4883543;28;88453;-61
2022/05/09 03:32:05;;;;;;;5.13;2.88;;;7.10;99.90;7.50;98851.00;;;;4883846;28;88589;-61
2022/05/09 03:34:31;;;;;;;5.22;3.00;;;7.10;99.90;7.40;98861.00;;;;4883325;28;87951;-61
2022/05/09 03:36:58;;;;;;;4.07;2.90;;;7.00;99.90;7.40;98846.00;;;;4884014;28;86952;-61
2022/05/09 03:39:24;;;;;;;4.38;3.00;;;7.00;99.90;7.40;98860.00;;;;4884156;28;87700;-61
2022/05/09 03:41:51;;;;;;;4.22;2.97;;;7.00;99.90;7.30;98863.00;;;;4884251;28;88781;-61
2022/05/09 03:44:18;;;;;;;6.72;3.10;;;7.00;99.90;7.30;98855.00;;;;4882454;28;86920;-61
2022/05/09 03:46:45;;;;;;;5.70;3.35;;;6.90;99.90;7.30;98859.00;;;;4866833;28;87631;-61
2022/05/09 03:49:12;;;;;;;4.85;3.00;;;6.90;99.90;7.20;98856.00;;;;4880697;28;88001;-61
2022/05/09 03:51:38;;;;;;;4.00;3.05;;;6.80;99.90;7.00;98874.00;;;;4886542;28;88578;-61
2022/05/09 03:54:04;;;;;;;4.32;3.00;;;6.80;99.90;7.10;98860.00;;;;4888495;28;87452;-61
2022/05/09 03:56:30;;;;;;;4.13;3.05;;;6.80;99.90;7.10;98860.00;;;;4870297;28;87170;-61
2022/05/09 03:58:56;;;;;;;7.55;3.20;;;6.80;99.90;7.10;98863.00;;;;4886416;28;88410;-61
2022/05/09 04:01:22;;;;;;;6.88;2.88;;;6.70;99.90;7.00;98855.00;;;;4887441;28;88210;-61
2022/05/09 04:03:48;;;;;;;4.88;2.70;;;6.70;99.90;7.00;98845.00;;;;4869467;28;87291;-61
2022/05/09 04:06:15;;;;;;;5.43;3.00;;;6.70;99.90;7.00;98860.00;;;;4886941;28;87672;-61
2022/05/09 04:08:41;;;;;;;5.22;2.53;;;6.70;99.90;7.00;98869.00;;;;4886646;28;87747;-61
2022/05/09 04:11:07;;;;;;;4.80;2.80;;;6.70;99.90;7.00;98869.00;;;;4886472;28;87119;-61
2022/05/09 04:13:33;;;;;;;5.97;2.70;;;6.70;99.90;6.90;98870.00;;;;4887068;28;86996;-61
2022/05/09 04:18:44;;;;;;;5.88;2.28;;;6.60;99.90;7.00;98855.00;;;;4887136;28;88690;-60
2022/05/09 04:21:13;;;;;;;4.50;2.28;;;6.80;99.90;7.50;98864.00;;;;4876220;28;89688;-62
2022/05/09 04:23:40;;;;;;;6.57;2.80;;;7.30;99.90;8.20;98861.00;;;;4886696;28;88477;-61
2022/05/09 04:26:07;;;;;;;4.75;2.80;;;7.90;99.90;8.90;98851.00;;;;4886943;28;86989;-62
2022/05/09 04:28:33;;;;;;;5.47;2.45;;;8.50;99.90;9.30;98860.00;;;;4869672;28;88183;-61
2022/05/09 04:31:00;;;;;;;5.68;2.70;;;8.80;99.90;9.30;98857.00;;;;4870555;28;88429;-61
2022/05/09 04:33:26;;;;;;;7.82;2.70;;;8.80;99.90;9.50;98859.00;;;;4887303;28;87004;-61
2022/05/09 04:35:53;;;;;;;5.47;2.50;;;9.10;99.90;8.80;98870.00;;;;4870346;28;87103;-61
2022/05/09 04:38:23;;;;;;;5.65;2.47;;;8.60;99.90;9.20;98868.00;;;;4886635;28;87076;-61
2022/05/09 04:40:54;;;;;;;8.32;3.10;;;8.70;99.90;8.90;98868.00;;;;4886806;28;88739;-60
2022/05/09 04:43:28;;;;;;;5.65;2.58;;;8.50;99.90;8.60;98880.00;;;;4886053;28;87043;-61
2022/05/09 04:45:57;;;;;;;3.42;2.33;;;8.30;99.90;8.60;98871.00;;;;4887077;28;86976;-61
2022/05/09 04:48:23;;;;;;;5.85;2.25;;;8.20;99.90;8.30;98892.00;;;;4886055;28;88725;-61
2022/05/09 04:50:50;;;;;;;3.35;2.30;;;8.00;99.90;8.40;98877.00;;;;4886766;28;88405;-61
2022/05/09 04:53:16;;;;;;;5.45;2.15;;;8.00;99.90;8.20;98871.00;;;;4887000;28;86983;-61
2022/05/09 04:55:43;;;;;;;4.40;2.60;;;7.80;99.90;8.30;98875.00;;;;4869290;28;88119;-62
2022/05/09 04:58:18;;;;;;;2.83;2.08;;;7.90;99.90;8.30;98884.00;;;;4886289;28;89005;-60
2022/05/09 05:00:44;;;;;;;4.72;1.90;;;7.90;99.90;8.20;98897.00;;;;4882977;28;88371;-62
2022/05/09 05:03:11;;;;;;;3.58;2.33;;;7.80;99.90;8.00;98895.00;;;;4885395;28;87006;-62
2022/05/09 05:05:38;;;;;;;4.90;2.03;;;7.70;99.90;7.80;98892.00;;;;4885669;28;86322;-61
2022/05/09 05:08:05;;;;;;;5.28;1.90;;;7.50;99.90;8.00;98892.00;;;;4886100;28;87683;-62
2022/05/09 05:10:31;;;;;;;4.43;1.75;;;7.60;99.90;7.70;98895.00;;;;4885731;28;87299;-62
2022/05/09 05:12:59;;;;;;;1.98;1.40;;;7.50;99.90;7.90;98894.00;;;;4884754;28;91260;-62
2022/05/09 05:15:26;;;;;;;4.05;1.92;;;7.60;99.90;8.00;98881.00;;;;4885635;28;86949;-62
2022/05/09 05:17:53;;;;;;;6.05;2.15;;;7.70;99.90;8.10;98901.00;;;;4885861;28;87661;-62
2022/05/09 05:20:19;;;;;;;3.65;1.50;;;7.70;99.90;8.20;98885.00;;;;4885850;28;87504;-62
2022/05/09 05:22:47;;;;;;;3.28;1.83;;;7.80;99.90;8.60;98888.00;;;;4885846;28;86847;-62
2022/05/09 05:25:21;;;;;;;3.50;1.92;;;8.10;99.90;8.60;98889.00;;;;4885920;28;87017;-62
2022/05/09 05:27:47;;;;;;;5.10;2.08;;;8.20;99.90;8.50;98896.00;;;;4885883;28;88228;-63
2022/05/09 05:30:15;;;;;;;5.30;1.60;;;8.10;99.90;8.50;98909.00;;;;4885916;28;88434;-64
2022/05/09 05:32:42;;;;;;;4.63;1.80;;;8.20;99.90;8.20;98908.00;;;;4869358;28;87438;-64
2022/05/09 05:35:15;;;;;;;3.53;1.63;;;8.00;99.90;8.10;98909.00;;;;4885744;28;87147;-64
2022/05/09 05:37:41;;;;;;;5.72;1.80;;;7.80;99.90;8.40;98898.00;;;;4884933;28;88638;-64
2022/05/09 05:40:09;;;;;;;4.75;1.40;;;8.00;99.90;8.40;98897.00;;;;4885313;28;88231;-64
2022/05/09 05:42:40;;;;;;;5.50;2.00;;;8.10;99.90;8.60;98924.00;;;;4869394;28;87117;-64
2022/05/09 05:45:09;;;;;;;4.70;1.80;;;8.10;99.90;8.30;98917.00;;;;4868775;28;87458;-65
2022/05/09 05:47:35;;;;;;;3.60;1.55;;;7.90;99.90;8.30;98915.00;;;;4868714;28;87727;-63
2022/05/09 05:50:06;;;;;;;4.72;1.60;;;7.90;99.90;8.00;98918.00;;;;4884937;28;87231;-64
2022/05/09 05:52:32;;;;;;;3.95;1.55;;;7.70;99.90;7.90;98909.00;;;;4884451;28;87067;-63
2022/05/09 05:54:58;;;;;;;2.85;1.42;;;7.50;99.90;7.80;98906.00;;;;4886133;28;86284;-64
2022/05/09 05:57:28;;;;;;;3.95;1.50;;;7.50;99.90;7.80;98919.00;;;;4885357;28;87495;-63
2022/05/09 05:59:58;;;;;;;4.00;1.50;;;7.60;99.90;7.90;98929.00;;;;4869356;28;88320;-64
2022/05/09 06:02:26;;;;;;;4.18;1.42;;;7.60;99.90;8.00;98920.00;;;;4874365;28;87811;-63
2022/05/09 06:04:53;;;;;;;3.25;1.50;;;7.70;99.90;8.30;98928.00;;;;4885633;28;86970;-65
2022/05/09 06:07:22;;;;;;;2.42;1.45;;;8.00;99.90;8.60;98917.00;;;;4868242;28;91022;-63
2022/05/09 06:09:51;;;;;;;5.63;1.70;;;8.20;99.90;8.80;98924.00;;;;4885271;28;88746;-63
2022/05/09 06:12:20;;;;;;;3.22;1.23;;;8.40;99.90;8.20;98911.00;;;;4883709;28;87036;-63
2022/05/09 06:15:24;;;;;;;3.90;1.30;;;7.80;99.90;8.10;98945.00;;;;4884916;28;86992;-63
2022/05/09 06:17:37;;;;;;;4.68;1.67;;;7.80;99.90;8.30;98915.00;;;;4882694;28;88833;-64
2022/05/09 06:20:12;;;;;;;2.20;1.17;;;7.90;99.90;8.20;98923.00;;;;4872391;28;87423;-65
2022/05/09 06:22:39;;;;;;;4.47;1.23;;;7.80;99.90;8.30;98935.00;;;;4885277;28;87005;-64
2022/05/09 06:25:18;;;;;;;2.90;1.58;;;7.90;99.90;8.30;98930.00;;;;4884546;28;87187;-63
2022/05/09 06:27:46;;;;;;;3.83;1.58;;;8.00;99.90;8.30;98930.00;;;;4883503;28;89448;-66
2022/05/09 06:30:16;;;;;;;4.78;1.45;;;8.00;99.90;8.60;98922.00;;;;4884697;28;88582;-66
2022/05/09 06:32:42;;;;;;;3.40;1.27;;;8.20;99.90;8.90;98927.00;;;;4884730;28;87466;-66
2022/05/09 06:35:20;;;;;;;2.28;1.30;;;8.40;99.90;8.80;98937.00;;;;4867334;28;87149;-67
2022/05/09 06:37:48;;;;;;;2.70;1.10;;;8.40;99.90;8.90;98934.00;;;;4884443;28;87636;-67
2022/05/09 06:40:15;;;;;;;1.73;1.13;;;8.40;99.90;8.60;98936.00;;;;4883932;28;87126;-67
2022/05/09 06:42:41;;;;;;;2.58;1.15;;;8.20;99.90;8.60;98928.00;;;;4866787;28;87541;-67
2022/05/09 06:45:09;;;;;;;2.40;1.30;;;8.20;99.90;8.60;98929.00;;;;4885009;28;86335;-67
2022/05/09 06:47:44;;;;;;;2.05;1.20;;;8.20;99.90;8.60;98965.00;;;;4884487;28;87717;-67
2022/05/09 06:50:10;;;;;;;5.32;1.30;;;8.30;99.90;8.80;98934.00;;;;4881066;28;88523;-68
2022/05/09 06:52:36;;;;;;;3.38;1.45;;;8.40;99.90;8.70;98945.00;;;;4883802;28;88283;-67
2022/05/09 06:55:03;;;;;;;4.45;1.48;;;8.30;99.90;8.60;98949.00;;;;4884597;28;87000;-67
2022/05/09 06:57:30;;;;;;;3.60;1.40;;;8.30;99.90;8.70;98935.00;;;;4884396;28;87863;-68
2022/05/09 06:59:56;;;;;;;2.55;1.30;;;8.40;99.90;9.00;98954.00;;;;4867993;28;87258;-67
2022/05/09 07:02:22;;;;;;;3.05;1.45;;;8.60;99.90;8.80;98944.00;;;;4866484;28;87119;-66
2022/05/09 07:04:48;;;;;;;7.18;1.42;;;8.50;99.90;9.10;98934.00;;;;4883804;28;87314;-67
2022/05/09 07:07:14;;;;;;;4.00;1.33;;;8.70;99.90;9.10;98935.00;;;;4884010;28;87782;-67
2022/05/09 07:09:40;;;;;;;6.18;1.98;;;8.80;99.90;9.40;98950.00;;;;4866382;28;89779;-66
2022/05/09 07:12:07;;;;;;;2.95;1.33;;;9.10;99.90;9.90;98926.00;;;;4880856;28;87555;-67
2022/05/09 07:14:34;;;;;;;3.53;1.40;;;9.50;99.90;9.90;98952.00;;;;4882546;28;87102;-67
2022/05/09 07:17:00;;;;;;;2.75;1.20;;;9.50;99.90;9.50;98965.00;;;;4881402;28;89161;-66
2022/05/09 07:19:26;;;;;;;3.47;1.63;;;9.20;99.90;9.10;98951.00;;;;4883079;28;87157;-66
2022/05/09 07:21:52;;;;;;;4.05;1.60;;;8.70;99.90;8.90;98944.00;;;;4883465;28;87455;-65
2022/05/09 07:24:18;;;;;;;4.13;1.65;;;8.50;99.90;8.50;98937.00;;;;4883401;28;86998;-67
2022/05/09 07:26:44;;;;;;;3.13;1.23;;;8.30;99.90;8.40;98939.00;;;;4882767;28;87508;-67
2022/05/09 07:29:10;;;;;;;4.53;1.38;;;8.10;99.90;8.70;98935.00;;;;4883259;28;87589;-65
2022/05/09 07:31:37;;;;;;;3.33;1.15;;;8.40;99.90;9.00;98966.00;;;;4884035;28;87289;-66
2022/05/09 07:34:04;;;;;;;2.90;1.40;;;8.70;99.90;9.40;98946.00;;;;4869675;28;86387;-67
2022/05/09 07:36:31;;;;;;;4.85;1.30;;;9.10;99.90;9.40;98933.00;;;;4866522;28;87074;-67
2022/05/09 07:39:02;;;;;;;2.85;1.50;;;9.00;99.90;8.80;98978.00;;;;4884087;28;88390;-66
2022/05/09 07:41:29;;;;;;;3.63;1.23;;;8.60;99.90;8.30;98957.00;;;;4883867;28;88117;-66
2022/05/09 07:44:00;;;;;;;3.20;1.52;;;8.00;99.90;7.90;98963.00;;;;4868234;28;87287;-66
2022/05/09 07:46:26;;;;;;;2.95;1.45;;;7.60;99.90;7.70;98966.00;;;;4851230;28;89001;-66
2022/05/09 07:48:52;;;;;;;4.82;1.60;;;7.40;99.90;7.70;98957.00;;;;4873920;28;87860;-66
2022/05/09 07:51:19;;;;;;;3.58;1.52;;;7.40;99.90;7.60;98968.00;;;;4884113;28;87251;-66
2022/05/09 07:53:46;;;;;;;2.95;1.30;;;7.40;99.90;7.60;98981.00;;;;4883993;28;86960;-66
2022/05/09 07:56:12;;;;;;;3.63;1.45;;;7.40;99.90;7.40;98977.00;;;;4883641;28;87761;-67
2022/05/09 07:58:39;;;;;;;3.25;1.27;;;7.20;99.90;7.20;98984.00;;;;4836088;28;91245;-68
2022/05/09 08:01:06;;;;;;;1.98;1.10;;;7.00;99.90;7.20;98984.00;;;;4884181;28;86963;-67
2022/05/09 08:03:34;;;;;;;3.13;1.30;;;7.00;99.90;7.20;98957.00;;;;4883924;28;87369;-67
2022/05/09 08:06:02;;;;;;;4.32;1.38;;;7.00;99.90;7.50;98966.00;;;;4882600;28;88703;-67
2022/05/09 08:08:31;;;;;;;4.05;1.40;;;7.30;99.90;7.80;98942.00;;;;4883355;28;89542;-67
2022/05/09 08:10:59;;;;;;;3.08;1.40;;;7.60;99.90;8.00;98947.00;;;;4866214;28;86981;-67
2022/05/09 08:13:30;;;;;;;4.00;1.70;;;7.80;99.90;8.30;98943.00;;;;4881224;28;86952;-67
2022/05/09 08:15:56;;;;;;;3.73;1.63;;;8.00;99.90;8.70;98937.00;;;;4883955;28;87053;-65
2022/05/09 08:18:24;;;;;;;3.22;1.48;;;8.40;99.90;9.00;98945.00;;;;4882370;28;88474;-67
2022/05/09 08:20:51;;;;;;;2.63;1.42;;;8.60;99.90;9.20;98962.00;;;;4883787;28;87012;-67
2022/05/09 08:23:18;;;;;;;3.33;1.60;;;8.80;99.90;9.10;98956.00;;;;4883616;28;86283;-67
2022/05/09 08:25:48;;;;;;;3.15;1.20;;;8.80;99.90;8.90;98958.00;;;;4882907;28;87584;-67
2022/05/09 08:28:16;;;;;;;3.30;1.50;;;8.60;99.90;8.90;98958.00;;;;4882410;28;87445;-67
2022/05/09 08:30:44;;;;;;;2.83;1.30;;;8.50;99.90;9.00;98952.00;;;;4883273;28;88215;-67
2022/05/09 08:33:15;;;;;;;4.47;1.55;;;8.60;99.90;8.70;98975.00;;;;4883537;28;87070;-67
2022/05/09 08:35:47;;;;;;;2.47;1.38;;;8.50;99.90;8.90;98954.00;;;;4881380;28;87423;-67
2022/05/09 08:38:14;;;;;;;5.60;1.75;;;8.50;99.90;8.70;98962.00;;;;4886036;28;87499;-67
2022/05/09 08:40:54;;;;;;;4.78;1.27;;;8.40;99.90;8.20;98978.00;;;;4868776;28;87044;-67
2022/05/09 08:43:45;;;;;;;4.25;1.10;;;8.00;99.90;8.20;98978.00;;;;4885338;28;86893;-67
2022/05/09 08:46:25;;;;;;;3.87;1.10;;;7.90;99.90;8.30;98978.00;;;;4856807;28;88661;-68
2022/05/09 08:48:57;;;;;;;4.93;1.20;;;8.00;99.90;8.30;98965.00;;;;4886792;28;86164;-67
2022/05/09 08:51:46;;;;;;;3.40;1.27;;;8.10;99.90;8.50;98980.00;;;;4887169;28;87008;-65
2022/05/09 08:54:20;;;;;;;4.07;1.10;;;8.20;99.90;8.50;99019.00;;;;4868143;29;87492;-67
2022/05/09 08:56:51;;;;;;;10.60;1.60;;;8.30;99.90;8.30;98991.00;;;;4877721;28;87928;-66
2022/05/09 08:59:38;;;;;;;3.72;1.20;;;8.20;99.90;8.30;98977.00;;;;4869440;28;87214;-66
2022/05/09 09:02:18;;;;;;;6.28;2.38;;;8.00;99.90;7.90;98987.00;;;;4869080;28;87062;-65
2022/05/09 09:04:53;;;;;;;4.00;1.63;;;7.70;99.90;7.70;99006.00;;;;4884760;28;86839;-66
2022/05/09 09:07:52;;;;;;;7.75;1.60;;;7.40;99.90;7.60;99013.00;;;;4868509;28;88805;-65
2022/05/09 09:10:44;;;;;;;3.70;1.35;;;7.30;99.90;7.50;99006.00;;;;4881952;28;87010;-66
2022/05/09 09:13:32;;;;;;;7.07;1.60;;;7.20;99.90;7.30;99019.00;;;;4867156;28;87804;-66
2022/05/09 09:16:46;;;;;;;8.88;1.85;;;7.10;99.90;7.50;99016.00;;;;4869769;28;86873;-66
2022/05/09 09:19:15;;;;;;;3.63;1.08;;;7.30;99.90;7.60;98992.00;;;;4885093;28;87824;-66
2022/05/09 09:22:31;;;;;;;5.25;1.63;;;7.40;99.90;7.80;98992.00;;;;4884698;28;87372;-67
2022/05/09 09:25:40;;;;;;;9.00;1.25;;;7.60;99.90;8.10;98991.00;;;;4885255;28;87907;-67
2022/05/09 09:28:44;;;;;;;2.53;1.10;;;7.80;99.90;8.30;98991.00;;;;4885062;28;87414;-68
2022/05/09 09:31:11;;;;;;;2.72;1.10;;;8.10;99.90;7.90;99014.00;;;;4886154;28;87668;-67
2022/05/09 09:33:52;;;;;;;3.33;1.27;;;7.70;99.90;7.90;99008.00;;;;4884222;28;87175;-68
2022/05/09 09:36:22;;;;;;;3.05;1.20;;;7.70;99.90;8.00;98998.00;;;;4877878;28;87267;-66
2022/05/09 09:39:14;;;;;;;3.45;1.10;;;7.70;99.90;8.20;99013.00;;;;4885842;28;86964;-65
2022/05/09 09:41:41;;;;;;;2.70;1.40;;;8.00;99.90;8.10;99014.00;;;;4881638;28;88036;-66
2022/05/09 09:44:17;;;;;;;1.92;1.40;;;7.90;99.90;8.20;99005.00;;;;4886016;28;87890;-66
2022/05/09 09:47:27;;;;;;;4.70;1.33;;;8.00;99.90;8.20;99000.00;;;;4901010;28;87067;-65
2022/05/09 09:50:25;;;;;;;2.80;1.20;;;8.00;99.90;8.60;99007.00;;;;4885323;28;86867;-65
2022/05/09 09:52:58;;;;;;;4.85;1.30;;;8.30;99.90;8.70;98993.00;;;;4884736;28;88755;-65
2022/05/09 09:55:36;;;;;;;2.47;1.30;;;8.50;99.90;8.80;99002.00;;;;4885379;28;89352;-65
2022/05/09 09:58:26;;;;;;;3.58;1.67;;;8.60;99.90;9.00;99001.00;;;;4883620;28;87528;-65
2022/05/09 10:01:12;;;;;;;3.97;1.30;;;8.80;99.90;9.20;99001.00;;;;4884593;28;87329;-64
2022/05/09 10:03:46;;;;;;;4.18;1.33;;;9.00;99.90;8.90;99033.00;;;;4884491;28;87644;-67
2022/05/09 10:06:21;;;;;;;2.58;1.40;;;8.80;99.90;9.00;99019.00;;;;4884378;28;87333;-67
2022/05/09 10:09:06;;;;;;;2.22;1.30;;;8.70;99.90;9.10;99003.00;;;;4883518;28;88019;-66
2022/05/09 10:11:34;;;;;;;3.28;1.38;;;8.80;99.90;9.40;99008.00;;;;4885259;28;86362;-67
2022/05/09 10:14:05;;;;;;;3.35;1.20;;;9.20;99.90;9.40;98993.00;;;;4884646;28;87766;-67
2022/05/09 10:16:41;;;;;;;5.45;1.63;;;9.10;99.90;9.60;99012.00;;;;4868736;28;87296;-67
2022/05/09 10:19:10;;;;;;;2.92;1.02;;;9.40;99.90;9.80;99006.00;;;;4868316;28;87954;-67
2022/05/09 10:24:47;;;;;;;4.55;1.10;;;9.40;99.90;9.30;99027.00;;;;4884265;28;88686;-66
2022/05/09 10:27:23;;;;;;;8.98;1.50;;;9.00;99.90;9.20;99017.00;;;;4883743;28;87294;-66
2022/05/09 10:29:56;;;;;;;5.68;1.30;;;8.80;99.90;9.00;99066.00;;;;4883585;28;86911;-66
2022/05/09 10:32:41;;;;;;;3.30;1.20;;;8.60;99.90;8.60;99059.00;;;;4881004;28;87330;-66
2022/05/09 10:35:22;;;;;;;2.65;1.20;;;8.30;99.90;8.60;99073.00;;;;4883567;28;87683;-66
2022/05/09 10:37:58;;;;;;;3.47;0.90;;;8.20;99.90;8.50;99066.00;;;;4867605;28;88322;-65
2022/05/09 10:40:39;;;;;;;6.93;1.42;;;8.10;99.90;8.10;99074.00;;;;4883766;28;87880;-65
2022/05/09 10:43:21;;;;;;;5.05;1.15;;;7.90;99.90;8.40;99043.00;;;;4877970;28;87526;-66
2022/05/09 10:45:50;;;;;;;1.92;1.25;;;8.00;99.90;8.10;99074.00;;;;4884221;28;88437;-66
2022/05/09 10:48:34;;;;;;;6.60;1.20;;;7.80;99.90;8.00;99067.00;;;;4883400;28;88362;-66
2022/05/09 10:51:16;;;;;;;2.00;1.10;;;7.70;99.90;8.00;99052.00;;;;4868969;28;86953;-66
2022/05/09 10:53:57;;;;;;;3.72;1.50;;;7.70;99.90;8.20;99023.00;;;;4880152;28;87306;-66
2022/05/09 10:56:57;;;;;;;3.65;1.10;;;7.90;99.90;8.30;99047.00;;;;4884094;28;88743;-67
2022/05/09 10:59:28;;;;;;;2.28;1.17;;;8.00;99.90;8.40;99054.00;;;;4862055;29;87356;-65
2022/05/09 11:02:19;;;;;;;3.58;1.20;;;8.00;99.90;8.80;99050.00;;;;4864580;28;87027;-68
2022/05/09 11:04:46;;;;;;;2.47;1.40;;;8.30;99.90;8.30;99043.00;;;;4884571;28;86702;-66
2022/05/09 11:07:27;;;;;;;3.22;1.20;;;8.00;99.90;8.10;99060.00;;;;4882573;28;87255;-67
2022/05/09 11:10:25;;;;;;;3.55;1.05;;;7.80;99.90;8.00;99066.00;;;;4864227;28;87360;-66
2022/05/09 11:13:16;;;;;;;2.72;1.05;;;7.60;99.90;8.10;99072.00;;;;4866630;28;88470;-66
2022/05/09 11:16:12;;;;;;;4.05;1.33;;;7.70;99.90;8.00;99079.00;;;;4884332;28;86875;-67
2022/05/09 11:19:12;;;;;;;3.95;1.45;;;7.60;99.90;8.00;99079.00;;;;4882939;28;88647;-67
2022/05/09 11:22:05;;;;;;;5.82;1.77;;;7.70;99.90;6.90;99227.00;;;;4881233;28;87345;-66
2022/05/09 11:25:10;;;;;;;3.47;1.33;;;7.30;99.90;5.60;99154.00;;;;4866742;28;87168;-66
2022/05/09 11:28:04;;;;;;;2.90;1.20;;;5.40;99.90;5.10;99144.00;;;;4848943;28;87312;-66
2022/05/09 11:30:44;;;;;;;4.22;1.27;;;4.90;99.90;4.90;99159.00;;;;4883339;28;88075;-66
2022/05/09 11:33:34;;;;;;;5.88;1.75;;;4.70;99.90;4.90;99126.00;;;;4867350;28;87498;-66
2022/05/09 11:36:59;;;;;;;3.97;1.80;;;4.70;99.90;5.00;99119.00;;;;4867219;28;87582;-66
2022/05/09 11:40:26;;;;;;;3.15;1.60;;;4.70;99.90;5.10;99126.00;;;;4871993;28;87068;-66
2022/05/09 11:43:38;;;;;;;2.75;1.25;;;4.90;99.90;5.20;99141.00;;;;4881690;28;89638;-66